Terminal Aerodrome Forecast
Issued by NWS Missoula, MT

Home | Current Version | Previous Version | Text Only | Print | Product List | Glossary On
Versions: 1 2 3 4 5 6 7 8 9 10 11 12 13 14 15 16 17
203
FTUS45 KMSO 301120
TAFBTM
TAF
KBTM 301120Z 3012/3112 VRB04KT P6SM VCSH SCT030 BKN060
     FM301600 30008KT P6SM SCT100
     FM301900 32012G20KT P6SM BKN120=

USA.gov is the U.S. government's official web portal to all federal, state and local government web resources and services.